Time;durP1;ratioP1;P1;durP2;ratioP2;P2;SDS_P1;SDS_P2;PMS_P1;PMS_P2;Temp;Humidity;BMP_temperature;BMP_pressure;BME280_temperature;BME280_humidity;BME280_pressure;Samples;Min_cycle;Max_cycle;Signal;HPM_P1;HPM_P2
2021/10/25 00:00:34;;;;;;;41.00;23.93;;;;;;;1.53;80.72;100232.91;2173358;81;20965;-78
2021/10/25 00:03:36;;;;;;;38.70;23.50;;;;;;;1.52;80.85;100229.84;2163043;82;20952;-78
2021/10/25 00:06:38;;;;;;;42.00;23.70;;;;;;;1.49;80.78;100231.81;2173664;81;21308;-78
2021/10/25 00:09:39;;;;;;;41.90;24.03;;;;;;;1.49;80.93;100227.05;2173450;81;21047;-79
2021/10/25 00:12:41;;;;;;;42.67;25.23;;;;;;;1.47;80.81;100223.09;2173771;81;21309;-79
2021/10/25 00:15:41;;;;;;;43.57;24.50;;;;;;;1.47;80.67;100224.77;2173909;81;20941;-79
2021/10/25 00:18:42;;;;;;;41.37;23.80;;;;;;;1.44;80.72;100224.16;2173809;81;20940;-79
2021/10/25 00:21:42;;;;;;;43.03;25.40;;;;;;;1.44;80.73;100228.41;2173625;81;20945;-79
2021/10/25 00:24:43;;;;;;;42.73;24.80;;;;;;;1.40;80.73;100218.70;2174039;81;21011;-78
2021/10/25 00:27:43;;;;;;;43.67;22.97;;;;;;;1.38;80.61;100218.98;2173613;81;20988;-78
2021/10/25 00:30:44;;;;;;;44.83;24.13;;;;;;;1.36;80.53;100216.70;2173763;81;21016;-79
2021/10/25 00:33:44;;;;;;;49.20;25.17;;;;;;;1.34;80.59;100222.12;2173856;81;20961;-78
2021/10/25 00:36:45;;;;;;;45.23;23.87;;;;;;;1.30;80.62;100220.13;2174026;81;20937;-79
2021/10/25 00:39:45;;;;;;;49.40;25.33;;;;;;;1.29;80.74;100216.66;2174168;81;21300;-79
2021/10/25 00:42:46;;;;;;;47.10;25.87;;;;;;;1.24;80.80;100214.16;2174041;81;20952;-79
2021/10/25 00:45:46;;;;;;;42.10;24.47;;;;;;;1.23;80.74;100213.66;2173968;81;20965;-79
2021/10/25 00:48:46;;;;;;;43.43;24.87;;;;;;;1.22;80.87;100208.02;2173876;81;20992;-79
2021/10/25 00:51:48;;;;;;;41.90;25.33;;;;;;;1.18;80.80;100205.63;2176481;81;20991;-80
2021/10/25 00:54:49;;;;;;;55.30;27.03;;;;;;;1.17;80.89;100207.70;2190802;81;20984;-79
2021/10/25 00:57:50;;;;;;;50.07;27.00;;;;;;;1.17;80.96;100202.55;2189741;81;21333;-79
2021/10/25 01:00:50;;;;;;;42.03;25.40;;;;;;;1.18;81.04;100197.91;2190078;81;20972;-79
2021/10/25 01:03:51;;;;;;;45.77;24.87;;;;;;;1.15;80.86;100191.27;2190119;81;21387;-77
2021/10/25 01:06:52;;;;;;;45.43;24.37;;;;;;;1.13;80.99;100179.98;2189562;81;20929;-78
2021/10/25 01:09:52;;;;;;;41.90;24.17;;;;;;;1.14;81.17;100178.30;2189369;81;20979;-78
2021/10/25 01:12:53;;;;;;;51.00;24.47;;;;;;;1.13;81.16;100178.69;2190255;81;20987;-79
2021/10/25 01:15:54;;;;;;;43.80;23.67;;;;;;;1.13;81.23;100182.55;2190190;81;21419;-78
2021/10/25 01:18:54;;;;;;;40.83;23.77;;;;;;;1.14;81.35;100175.73;2189939;81;20940;-78
2021/10/25 01:21:55;;;;;;;43.73;24.33;;;;;;;1.14;81.08;100173.16;2190133;81;20928;-77
2021/10/25 01:24:55;;;;;;;45.33;24.63;;;;;;;1.12;81.07;100172.16;2190245;81;21362;-78
2021/10/25 01:27:56;;;;;;;42.27;23.07;;;;;;;1.10;80.99;100167.30;2190161;81;20991;-78
2021/10/25 01:30:56;;;;;;;41.37;24.17;;;;;;;1.09;80.92;100171.94;2190281;81;20964;-78
2021/10/25 01:33:57;;;;;;;44.77;24.20;;;;;;;1.05;80.91;100160.55;2190509;81;20952;-78
2021/10/25 01:36:57;;;;;;;44.80;23.63;;;;;;;1.04;80.98;100154.91;2190542;81;20948;-79
2021/10/25 01:39:58;;;;;;;40.10;22.80;;;;;;;1.01;80.88;100153.80;2190505;81;20947;-78
2021/10/25 01:42:58;;;;;;;41.80;22.57;;;;;;;0.97;80.82;100153.98;2190509;81;21624;-78
2021/10/25 01:45:59;;;;;;;36.60;21.70;;;;;;;0.93;81.06;100147.73;2190541;81;21375;-78
2021/10/25 01:48:59;;;;;;;41.83;23.07;;;;;;;0.93;81.09;100148.12;2190038;81;20980;-78
2021/10/25 01:52:00;;;;;;;38.33;22.30;;;;;;;0.93;81.31;100151.97;2190428;81;20956;-79
2021/10/25 01:55:00;;;;;;;38.23;20.97;;;;;;;0.91;81.11;100147.12;2190625;81;20948;-78
2021/10/25 01:58:01;;;;;;;41.73;22.00;;;;;;;0.92;81.28;100147.62;2190374;81;20944;-79
2021/10/25 02:01:01;;;;;;;39.80;21.97;;;;;;;0.92;81.26;100147.22;2190534;81;20920;-80
2021/10/25 02:04:02;;;;;;;36.33;21.23;;;;;;;0.95;81.42;100145.27;2190559;81;21311;-79
2021/10/25 02:07:02;;;;;;;35.13;21.87;;;;;;;0.93;81.26;100133.59;2190411;81;20912;-79
2021/10/25 02:10:03;;;;;;;38.20;20.63;;;;;;;0.93;81.15;100142.58;2190435;81;20964;-79
2021/10/25 02:13:03;;;;;;;34.07;21.07;;;;;;;0.89;81.05;100129.41;2190915;81;20992;-80
2021/10/25 02:16:04;;;;;;;48.33;22.30;;;;;;;0.83;80.95;100133.69;2190246;81;21007;-79
2021/10/25 02:19:05;;;;;;;76.33;23.37;;;;;;;0.83;81.01;100137.94;2190320;81;20964;-78
2021/10/25 02:22:05;;;;;;;65.67;23.07;;;;;;;0.85;80.93;100139.83;2190553;81;20972;-79
2021/10/25 02:25:06;;;;;;;36.00;20.77;;;;;;;0.82;80.64;100134.48;2190402;81;21376;-80
2021/10/25 02:28:06;;;;;;;35.73;19.37;;;;;;;0.75;80.25;100128.41;2190644;81;20968;-80
2021/10/25 02:31:07;;;;;;;33.30;19.53;;;;;;;0.69;80.21;100129.65;2190514;81;20952;-80
2021/10/25 02:34:07;;;;;;;39.87;20.87;;;;;;;0.62;80.32;100125.36;2189991;81;20968;-79
2021/10/25 02:37:08;;;;;;;35.07;21.27;;;;;;;0.62;80.55;100120.61;2189539;81;21007;-79
2021/10/25 02:40:08;;;;;;;38.23;21.83;;;;;;;0.66;80.98;100121.72;2190280;81;20956;-78
2021/10/25 02:43:09;;;;;;;40.97;21.33;;;;;;;0.64;80.83;100122.50;2190119;81;20976;-79
2021/10/25 02:46:09;;;;;;;38.67;21.03;;;;;;;0.66;80.80;100117.87;2189921;81;21016;-80
2021/10/25 02:49:10;;;;;;;38.27;20.57;;;;;;;0.66;80.63;100123.00;2190169;81;20967;-79
2021/10/25 02:52:11;;;;;;;32.47;19.50;;;;;;;0.62;80.44;100117.65;2188455;81;20938;-79
2021/10/25 02:55:11;;;;;;;47.87;20.87;;;;;;;0.61;80.39;100115.87;2173390;81;21340;-78
2021/10/25 02:58:12;;;;;;;35.33;19.80;;;;;;;0.60;80.70;100110.23;2173317;81;20933;-79
2021/10/25 03:01:12;;;;;;;36.37;20.67;;;;;;;0.60;80.74;100107.66;2173528;81;20945;-78
2021/10/25 03:04:13;;;;;;;33.90;19.93;;;;;;;0.55;80.66;100102.58;2173433;81;20944;-79
2021/10/25 03:07:13;;;;;;;38.43;21.13;;;;;;;0.55;81.01;100108.11;2173645;81;20925;-78
2021/10/25 03:10:14;;;;;;;37.73;20.73;;;;;;;0.57;81.25;100103.58;2173176;81;20976;-78
2021/10/25 03:13:18;;;;;;;34.70;20.93;;;;;;;0.59;81.17;100109.72;2173279;81;20953;-78
2021/10/25 03:16:20;;;;;;;34.17;20.63;;;;;;;0.57;81.00;100109.11;2173385;81;21411;-79
2021/10/25 03:19:25;;;;;;;39.50;22.27;;;;;;;0.57;81.23;100102.30;2173338;81;21004;-78
2021/10/25 03:22:25;;;;;;;38.58;20.30;;;;;;;0.60;81.12;100102.52;2173427;81;20953;-79
2021/10/25 03:25:26;;;;;;;36.70;20.40;;;;;;;0.61;80.83;100108.55;2173135;82;20988;-79
2021/10/25 03:28:26;;;;;;;34.00;20.87;;;;;;;0.56;80.84;100103.08;2173399;81;20984;-79
2021/10/25 03:31:28;;;;;;;36.93;20.77;;;;;;;0.57;81.02;100105.26;2172907;82;21344;-79
2021/10/25 03:34:28;;;;;;;39.70;20.90;;;;;;;0.54;80.94;100104.65;2173000;82;21043;-79
2021/10/25 03:37:29;;;;;;;38.70;20.33;;;;;;;0.51;80.79;100107.00;2172714;82;20949;-80
2021/10/25 03:40:31;;;;;;;36.00;17.97;;;;;;;0.45;80.96;100100.14;2172901;81;20988;-79
2021/10/25 03:43:35;;;;;;;44.93;22.67;;;;;;;0.51;83.41;100095.44;2173742;81;20984;-79
2021/10/25 03:46:44;;;;;;;35.93;20.90;;;;;;;0.76;82.85;100099.73;2173335;81;20953;-84
2021/10/25 03:49:59;;;;;;;43.00;21.30;;;;;;;0.75;81.46;100097.56;2172870;81;21523;-79
2021/10/25 03:56:14;;;;;;;49.00;21.27;;;;;;;0.67;80.58;100088.42;2172831;81;20975;-81
2021/10/25 04:25:33;;;;;;;38.03;22.37;;;;;;;0.30;81.89;100063.98;2187734;81;21008;-82
2021/10/25 04:28:21;;;;;;;39.77;22.23;;;;;;;0.29;81.79;100053.60;2185490;81;21406;-82
2021/10/25 04:31:21;;;;;;;39.33;22.57;;;;;;;0.27;81.77;100059.91;2187893;81;21399;-82
2021/10/25 04:34:22;;;;;;;39.77;20.80;;;;;;;0.28;81.92;100054.39;2187787;81;20932;-81
2021/10/25 04:37:22;;;;;;;43.83;23.10;;;;;;;0.25;81.75;100047.75;2188130;81;20990;-77
2021/10/25 04:40:23;;;;;;;40.00;22.73;;;;;;;0.22;81.61;100047.53;2188447;81;20920;-80
2021/10/25 04:43:24;;;;;;;41.37;22.97;;;;;;;0.24;81.89;100047.25;2187692;81;21344;-79
2021/10/25 04:46:24;;;;;;;46.63;22.67;;;;;;;0.24;81.88;100046.86;2187677;81;21035;-82
2021/10/25 04:49:25;;;;;;;40.33;22.30;;;;;;;0.20;81.57;100041.39;2187973;81;20979;-83
2021/10/25 04:52:27;;;;;;;48.07;23.53;;;;;;;0.17;81.77;100039.50;2188379;81;20975;-82
2021/10/25 04:55:27;;;;;;;37.20;22.33;;;;;;;0.15;81.96;100038.89;2188320;81;20955;-82
2021/10/25 04:58:28;;;;;;;38.27;21.90;;;;;;;0.15;81.97;100035.04;2188572;81;20971;-81
2021/10/25 05:01:29;;;;;;;38.53;22.47;;;;;;;0.15;82.14;100029.91;2189046;81;20999;-79
2021/10/25 05:04:30;;;;;;;41.83;23.80;;;;;;;0.15;82.28;100024.77;2188532;81;20951;-78
2021/10/25 05:07:31;;;;;;;40.93;25.00;;;;;;;0.21;82.56;100023.53;2188102;81;20994;-80
2021/10/25 05:10:31;;;;;;;45.10;24.43;;;;;;;0.22;82.34;100018.89;2187987;81;20955;-82
2021/10/25 05:13:32;;;;;;;52.37;24.80;;;;;;;0.22;82.21;100016.33;2188483;81;20948;-83
2021/10/25 05:16:32;;;;;;;43.03;22.13;;;;;;;0.23;82.26;100014.64;2188262;81;20948;-81
2021/10/25 05:19:33;;;;;;;41.63;24.17;;;;;;;0.18;82.61;100007.02;2188361;81;21426;-81
2021/10/25 05:22:33;;;;;;;49.97;25.23;;;;;;;0.17;82.18;100009.08;2188248;81;20940;-83
2021/10/25 05:25:34;;;;;;;40.93;23.57;;;;;;;0.18;82.28;100010.86;2189058;81;21015;-82
2021/10/25 05:28:35;;;;;;;41.53;23.53;;;;;;;0.19;82.29;100004.94;2188641;81;21025;-82
2021/10/25 05:31:35;;;;;;;52.23;24.60;;;;;;;0.17;82.16;100012.93;2188701;81;20916;-81
2021/10/25 05:34:36;;;;;;;41.90;22.83;;;;;;;0.18;82.15;100016.00;2189119;81;20944;-83
2021/10/25 05:37:37;;;;;;;46.57;24.80;;;;;;;0.21;82.27;100022.24;2189292;81;20963;-82
2021/10/25 05:40:38;;;;;;;55.13;26.30;;;;;;;0.25;82.19;100030.66;2188981;81;20976;-83
2021/10/25 05:43:39;;;;;;;38.53;23.23;;;;;;;0.28;82.08;100030.87;2187645;81;20909;-82
2021/10/25 05:46:39;;;;;;;44.20;23.23;;;;;;;0.31;81.87;100025.96;2188128;81;21474;-82
2021/10/25 05:49:40;;;;;;;65.77;27.53;;;;;;;0.34;81.81;100011.16;2187841;81;21438;-81
2021/10/25 05:52:40;;;;;;;48.43;25.13;;;;;;;0.35;81.82;100013.34;2187562;81;21658;-82
2021/10/25 05:55:42;;;;;;;40.17;23.10;;;;;;;0.40;81.78;100016.73;2187052;81;20963;-83
2021/10/25 05:58:43;;;;;;;41.67;24.70;;;;;;;0.46;81.76;100012.02;2188753;81;21007;-81
2021/10/25 06:01:55;;;;;;;42.93;24.83;;;;;;;0.53;81.69;100018.48;2189024;81;20976;-82
2021/10/25 06:04:46;;;;;;;45.83;24.90;;;;;;;0.59;81.63;100015.94;2187483;81;21386;-81
2021/10/25 06:07:48;;;;;;;42.27;24.30;;;;;;;0.70;81.44;100010.65;2189336;81;20983;-80
2021/10/25 06:10:49;;;;;;;43.07;24.33;;;;;;;0.73;81.38;100010.86;2189445;81;20983;-79
2021/10/25 06:13:49;;;;;;;47.50;26.00;;;;;;;0.85;81.40;100015.55;2188357;81;21329;-80
2021/10/25 06:16:57;;;;;;;39.43;25.17;;;;;;;0.97;81.31;100022.85;2188786;81;21364;-80
2021/10/25 06:19:52;;;;;;;41.30;24.53;;;;;;;1.09;81.21;100033.08;2187663;81;21364;-80
2021/10/25 06:22:53;;;;;;;46.37;25.07;;;;;;;1.23;81.06;100028.08;2188179;81;20936;-82
2021/10/25 06:25:53;;;;;;;47.23;25.63;;;;;;;1.37;80.96;100025.53;2187586;81;21030;-83
2021/10/25 06:28:54;;;;;;;40.03;24.57;;;;;;;1.55;80.78;100030.61;2188989;81;21365;-83
2021/10/25 06:31:55;;;;;;;54.03;25.73;;;;;;;1.70;80.50;100022.61;2188178;81;20935;-80
2021/10/25 06:34:58;;;;;;;61.60;26.57;;;;;;;1.81;80.29;100034.52;2188417;81;20913;-79
2021/10/25 06:38:10;;;;;;;;;;;;;;;1.96;80.00;100032.05;2192339;81;21379;-80
2021/10/25 06:41:06;;;;;;;40.23;24.30;;;;;;;2.08;79.59;100025.50;2188058;81;20152;-78
2021/10/25 06:44:07;;;;;;;38.10;22.83;;;;;;;2.17;79.54;100027.37;2188688;81;21052;-82
2021/10/25 06:47:08;;;;;;;40.37;25.03;;;;;;;2.26;79.36;100025.78;2188783;81;21308;-82
2021/10/25 06:50:08;;;;;;;43.23;23.97;;;;;;;2.39;79.35;100025.76;2189259;81;20971;-81
2021/10/25 06:53:09;;;;;;;45.00;24.70;;;;;;;2.53;79.14;100022.35;2187431;81;20952;-82
2021/10/25 06:56:09;;;;;;;40.27;23.50;;;;;;;2.70;78.89;100025.61;2172354;81;20988;-83
2021/10/25 06:59:10;;;;;;;36.97;22.87;;;;;;;2.88;78.69;100028.41;2171807;81;20945;-81
2021/10/25 07:02:11;;;;;;;41.47;24.00;;;;;;;3.02;78.23;100018.93;2172107;81;21337;-83
2021/10/25 07:05:12;;;;;;;38.90;24.73;;;;;;;3.58;78.65;100019.73;2172043;82;20996;-81
2021/10/25 07:08:15;;;;;;;53.53;24.83;;;;;;;3.64;77.48;100017.89;2172219;82;21039;-81
2021/10/25 07:11:16;;;;;;;41.03;24.40;;;;;;;3.68;76.86;100022.44;2172223;81;20972;-83
2021/10/25 07:14:24;;;;;;;40.27;24.77;;;;;;;3.71;76.58;100020.03;2172977;81;20949;-78
2021/10/25 07:17:38;;;;;;;54.23;24.30;;;;;;;3.75;75.97;100015.12;2171302;81;21368;-82
2021/10/25 08:09:51;;;;;;;41.13;25.30;;;;;;;5.33;72.90;99959.90;2160720;82;21411;-82
2021/10/25 08:12:59;;;;;;;42.43;24.80;;;;;;;5.49;72.67;99955.08;2170409;81;20996;-82
2021/10/25 08:16:08;;;;;;;42.60;25.53;;;;;;;5.70;72.02;99960.91;2170765;81;20957;-82
2021/10/25 08:19:23;;;;;;;42.60;22.57;;;;;;;5.88;71.87;99962.60;2170630;81;21024;-82
2021/10/25 08:22:16;;;;;;;39.60;23.23;;;;;;;6.22;70.77;99963.45;2170537;81;21055;-81
2021/10/25 08:25:16;;;;;;;52.30;25.30;;;;;;;6.22;70.77;99963.45;2171403;81;21031;-81
2021/10/25 08:28:16;;;;;;;40.47;24.90;;;;;;;6.42;71.24;99962.19;2172935;81;21008;-79
2021/10/25 08:31:17;;;;;;;40.30;22.97;;;;;;;6.61;70.40;99960.91;2173550;81;20981;-81
2021/10/25 08:34:35;;;;;;;38.73;23.27;;;;;;;6.78;70.11;99956.06;2172925;81;20996;-82
2021/10/25 08:40:32;;;;;;;46.73;24.57;;;;;;;7.01;68.68;99954.51;2162262;82;21033;-80
2021/10/25 08:43:33;;;;;;;39.77;24.77;;;;;;;6.99;69.02;99948.36;2171515;82;20956;-82
2021/10/25 08:46:33;;;;;;;38.47;23.97;;;;;;;7.14;69.06;99962.42;2171602;81;20949;-81
2021/10/25 08:49:34;;;;;;;35.53;22.87;;;;;;;7.25;67.38;99953.38;2170994;82;20976;-82
2021/10/25 08:52:35;;;;;;;34.47;23.20;;;;;;;7.26;68.22;99947.36;2171503;81;20973;-81
2021/10/25 08:55:35;;;;;;;38.67;24.13;;;;;;;7.28;68.33;99947.90;2171552;81;21007;-81
2021/10/25 08:58:38;;;;;;;35.77;23.67;;;;;;;7.41;68.55;99946.70;2173267;81;20991;-82
2021/10/25 09:01:39;;;;;;;38.67;23.10;;;;;;;7.51;67.55;99951.45;2172904;81;21400;-81
2021/10/25 09:04:40;;;;;;;32.67;22.17;;;;;;;7.68;68.21;99951.73;2172173;81;20959;-81
2021/10/25 09:07:40;;;;;;;33.27;22.47;;;;;;;7.88;67.86;99949.09;2172537;81;20965;-82
2021/10/25 09:10:41;;;;;;;36.27;21.83;;;;;;;8.07;67.89;99951.59;2173225;81;20972;-82
2021/10/25 09:13:43;;;;;;;126.33;26.40;;;;;;;8.14;66.32;99948.81;2161832;82;20961;-80
2021/10/25 09:16:44;;;;;;;32.43;19.53;;;;;;;8.25;66.68;99934.09;2172771;81;21450;-81
2021/10/25 09:19:47;;;;;;;45.43;19.23;;;;;;;8.41;66.62;99932.11;2172457;81;21375;-83
2021/10/25 09:22:47;;;;;;;26.07;17.50;;;;;;;8.59;66.14;99924.56;2172792;81;21051;-82
2021/10/25 09:25:47;;;;;;;62.83;19.67;;;;;;;8.75;65.32;99917.34;2172724;81;20956;-80
2021/10/25 09:28:52;;;;;;;33.87;17.50;;;;;;;8.94;65.76;99919.77;2172849;81;20948;-83
2021/10/25 09:31:50;;;;;;;32.03;17.13;;;;;;;9.15;65.00;99918.33;2171949;81;20925;-83
2021/10/25 09:34:53;;;;;;;27.13;15.97;;;;;;;9.22;64.08;99913.80;2172873;81;20940;-81
2021/10/25 09:38:04;;;;;;;29.70;15.30;;;;;;;9.26;63.94;99914.38;2172575;82;21000;-82
2021/10/25 09:50:41;;;;;;;22.43;13.77;;;;;;;9.82;61.69;99895.83;2170246;82;20983;-82
2021/10/25 09:53:46;;;;;;;20.03;13.20;;;;;;;9.95;61.93;99891.45;2171956;81;21026;-82
2021/10/25 09:56:52;;;;;;;26.53;13.50;;;;;;;10.06;61.48;99888.76;2172348;81;21414;-81
2021/10/25 09:59:48;;;;;;;18.03;12.23;;;;;;;10.19;60.37;99882.18;2172077;81;21052;-82
2021/10/25 10:02:48;;;;;;;20.03;13.43;;;;;;;10.29;59.95;99879.45;2171815;81;21033;-81
2021/10/25 10:05:50;;;;;;;20.27;12.10;;;;;;;10.32;59.44;99869.11;2170808;82;21467;-81
2021/10/25 10:08:50;;;;;;;22.98;13.10;;;;;;;10.37;58.58;99870.13;2172687;81;21028;-81
2021/10/25 10:11:51;;;;;;;20.23;13.50;;;;;;;10.42;58.97;99865.53;2173117;81;21043;-81
2021/10/25 10:14:51;;;;;;;23.67;12.37;;;;;;;10.55;59.30;99865.88;2172993;81;21012;-83
2021/10/25 10:17:53;;;;;;;20.73;11.83;;;;;;;10.67;58.41;99854.05;2172876;81;21019;-81
2021/10/25 10:20:53;;;;;;;32.42;12.90;;;;;;;10.76;58.17;99854.72;2172502;82;21024;-81
2021/10/25 10:23:58;;;;;;;24.77;13.70;;;;;;;10.79;56.93;99850.89;2172780;82;20960;-81
2021/10/25 10:26:58;;;;;;;24.92;11.20;;;;;;;10.81;56.55;99851.81;2161938;82;20980;-81
2021/10/25 10:29:59;;;;;;;20.52;10.53;;;;;;;10.84;56.37;99852.78;2173593;81;21009;-80
2021/10/25 10:32:59;;;;;;;22.22;13.72;;;;;;;10.90;56.23;99852.48;2171940;81;21008;-82
2021/10/25 10:36:00;;;;;;;21.62;11.28;;;;;;;10.94;56.54;99841.27;2171776;81;20984;-82
2021/10/25 10:39:01;;;;;;;25.43;12.28;;;;;;;10.95;54.85;99847.84;2171906;81;20976;-81
2021/10/25 10:42:05;;;;;;;20.37;12.25;;;;;;;11.03;56.45;99840.20;2171768;81;20947;-81
2021/10/25 10:45:04;;;;;;;58.87;15.98;;;;;;;11.13;56.18;99844.81;2171600;81;20917;-80
2021/10/25 10:48:07;;;;;;;20.72;12.73;;;;;;;11.24;57.00;99845.08;2171346;82;21387;-82
2021/10/25 10:51:11;;;;;;;23.32;13.08;;;;;;;11.38;56.70;99840.69;2171827;81;20984;-82
2021/10/25 10:54:21;;;;;;;21.93;13.48;;;;;;;11.50;56.56;99832.25;2173225;81;21070;-81
2021/10/25 10:57:45;;;;;;;20.75;13.18;;;;;;;11.58;56.47;99824.59;2187439;81;21011;-82
2021/10/25 11:00:30;;;;;;;20.12;12.15;;;;;;;11.58;55.54;99818.05;2186456;81;20983;-81
2021/10/25 11:03:31;;;;;;;20.80;12.85;;;;;;;11.52;54.04;99812.68;2188263;81;21370;-81
2021/10/25 11:06:31;;;;;;;17.80;10.48;;;;;;;11.52;55.12;99816.18;2188905;81;21401;-81
2021/10/25 11:09:32;;;;;;;17.42;11.00;;;;;;;11.57;54.46;99818.91;2188554;81;21043;-83
2021/10/25 11:12:35;;;;;;;19.20;10.20;;;;;;;11.67;54.40;99816.95;2188512;81;20983;-80
2021/10/25 11:15:37;;;;;;;16.82;9.98;;;;;;;11.69;53.46;99817.45;2187982;81;20925;-81
2021/10/25 11:18:37;;;;;;;15.53;9.93;;;;;;;11.70;53.88;99810.48;2188690;81;20943;-81
2021/10/25 11:21:38;;;;;;;16.77;9.65;;;;;;;11.72;52.67;99803.56;2188362;81;20948;-82
2021/10/25 11:24:39;;;;;;;16.07;8.75;;;;;;;11.68;52.67;99803.03;2188322;81;20940;-82
2021/10/25 11:27:40;;;;;;;60.08;12.10;;;;;;;11.73;52.97;99800.09;2187727;81;20940;-81
2021/10/25 11:30:41;;;;;;;13.15;9.10;;;;;;;11.80;52.68;99792.45;2188572;81;21010;-81
2021/10/25 11:33:41;;;;;;;18.67;9.55;;;;;;;11.84;52.86;99784.67;2188094;81;20952;-82
2021/10/25 11:36:42;;;;;;;16.50;9.78;;;;;;;11.91;52.54;99785.26;2188025;81;21481;-82
2021/10/25 11:39:48;;;;;;;17.00;10.03;;;;;;;11.90;51.80;99786.99;2188380;81;21004;-80
2021/10/25 11:42:48;;;;;;;14.13;10.80;;;;;;;11.87;51.41;99779.08;2188401;81;20979;-80
2021/10/25 11:45:48;;;;;;;20.65;10.65;;;;;;;11.84;51.45;99778.13;2189038;81;20961;-82
2021/10/25 11:48:49;;;;;;;18.37;10.65;;;;;;;11.86;52.51;99785.59;2188769;81;21011;-80
2021/10/25 11:51:49;;;;;;;18.77;10.58;;;;;;;11.90;51.41;99775.64;2188438;81;20956;-81
2021/10/25 11:54:50;;;;;;;16.35;10.53;;;;;;;11.95;52.54;99778.81;2188110;81;21008;-81
2021/10/25 11:57:51;;;;;;;16.57;9.78;;;;;;;12.03;51.92;99765.89;2187621;81;20952;-81
2021/10/25 12:00:54;;;;;;;16.73;10.03;;;;;;;12.06;51.84;99762.91;2187583;81;21371;-81
2021/10/25 12:03:54;;;;;;;25.00;9.75;;;;;;;12.09;51.56;99762.09;2187852;81;21396;-80
2021/10/25 12:06:54;;;;;;;16.90;8.88;;;;;;;12.16;52.16;99760.09;2187235;81;20992;-81
2021/10/25 12:09:55;;;;;;;32.95;10.10;;;;;;;12.24;52.14;99760.23;2187148;81;20956;-82
2021/10/25 12:12:55;;;;;;;17.00;9.05;;;;;;;12.34;52.14;99755.64;2187320;81;20975;-82
2021/10/25 12:16:02;;;;;;;29.85;9.58;;;;;;;12.41;51.67;99753.59;2187455;81;20944;-81
2021/10/25 12:19:02;;;;;;;18.92;8.75;;;;;;;12.49;51.64;99750.69;2142794;83;21062;-82
2021/10/25 12:22:03;;;;;;;15.00;7.17;;;;;;;12.53;49.37;99745.96;2143315;83;21015;-82
2021/10/25 12:25:04;;;;;;;21.57;8.63;;;;;;;12.53;48.49;99739.41;2143406;83;21011;-81
2021/10/25 12:28:04;;;;;;;10.80;7.35;;;;;;;12.57;48.91;99735.11;2142789;83;20955;-80
2021/10/25 12:31:06;;;;;;;14.60;8.65;;;;;;;12.61;49.04;99731.70;2142909;83;21307;-80
2021/10/25 12:34:06;;;;;;;16.50;7.50;;;;;;;12.65;49.66;99733.09;2143074;83;21015;-80
2021/10/25 12:37:07;;;;;;;13.83;7.10;;;;;;;12.65;48.38;99726.54;2142619;83;21006;-81
2021/10/25 12:40:07;;;;;;;17.85;7.90;;;;;;;12.62;47.17;99721.25;2142706;83;20954;-80
2021/10/25 12:43:08;;;;;;;12.95;7.87;;;;;;;12.58;47.43;99715.92;2142994;83;20995;-78
2021/10/25 12:46:10;;;;;;;27.70;9.15;;;;;;;12.61;47.79;99718.17;2143059;83;20963;-81
2021/10/25 12:49:11;;;;;;;16.60;8.18;;;;;;;12.61;48.13;99716.86;2142863;83;21006;-81
2021/10/25 12:52:11;;;;;;;156.32;17.27;;;;;;;12.61;48.31;99712.94;2142816;83;20951;-80
2021/10/25 12:55:12;;;;;;;14.45;8.60;;;;;;;12.61;48.40;99699.84;2119755;84;21037;-81
2021/10/25 12:58:12;;;;;;;19.98;9.38;;;;;;;12.64;48.62;99709.06;2117366;84;21008;-81
2021/10/25 13:01:14;;;;;;;16.75;8.98;;;;;;;12.67;48.47;99702.56;2116951;84;20972;-80
2021/10/25 13:04:15;;;;;;;16.23;9.08;;;;;;;12.64;48.81;99702.51;2116756;84;21424;-80
2021/10/25 13:07:19;;;;;;;14.60;8.83;;;;;;;12.64;48.65;99698.58;2116785;84;20988;-79
2021/10/25 13:10:18;;;;;;;12.45;7.87;;;;;;;12.65;49.28;99696.41;2117007;84;20988;-80
2021/10/25 13:13:25;;;;;;;17.57;9.68;;;;;;;12.68;48.26;99691.23;2127690;83;21020;-81
2021/10/25 13:16:23;;;;;;;16.82;9.25;;;;;;;12.66;48.45;99685.51;2126750;84;20995;-80
2021/10/25 13:19:23;;;;;;;16.40;9.45;;;;;;;12.63;48.57;99686.77;2127132;84;20963;-81
2021/10/25 13:22:24;;;;;;;15.63;9.58;;;;;;;12.59;49.04;99683.22;2126474;84;20964;-80
2021/10/25 13:25:24;;;;;;;25.02;9.73;;;;;;;12.58;48.68;99677.52;2126779;84;21020;-80
2021/10/25 13:28:25;;;;;;;16.10;8.95;;;;;;;12.53;49.07;99676.56;2126541;83;21028;-79
2021/10/25 13:31:25;;;;;;;17.20;9.08;;;;;;;12.51;48.84;99676.97;2127080;84;21309;-80
2021/10/25 13:34:26;;;;;;;15.72;8.55;;;;;;;12.50;49.26;99671.27;2127321;84;20997;-81
2021/10/25 13:37:26;;;;;;;742.50;71.67;;;;;;;12.49;49.62;99672.13;2127717;84;21040;-77
2021/10/25 13:40:27;;;;;;;22.55;9.78;;;;;;;12.50;49.42;99667.77;2127667;84;21347;-81
2021/10/25 13:43:28;;;;;;;21.80;9.48;;;;;;;12.52;49.07;99661.70;2127550;83;20976;-80
2021/10/25 13:46:29;;;;;;;18.25;8.90;;;;;;;12.50;49.54;99663.42;2127415;84;20996;-80
2021/10/25 13:49:30;;;;;;;15.18;8.58;;;;;;;12.42;49.13;99648.00;2127731;83;21440;-83
2021/10/25 13:52:30;;;;;;;14.63;8.50;;;;;;;12.41;50.06;99654.09;2127166;84;20965;-80
2021/10/25 13:55:30;;;;;;;13.18;8.38;;;;;;;12.42;49.56;99651.50;2131654;83;21333;-80
2021/10/25 13:58:31;;;;;;;15.53;8.20;;;;;;;12.38;49.69;99646.19;2143429;83;21008;-79
2021/10/25 14:01:34;;;;;;;12.98;8.58;;;;;;;12.36;49.71;99640.92;2144131;83;21008;-79
2021/10/25 14:04:40;;;;;;;14.47;8.93;;;;;;;12.28;49.27;99637.72;2144849;83;21011;-79
2021/10/25 14:07:37;;;;;;;16.73;7.92;;;;;;;12.23;49.71;99640.69;2143682;83;21766;-80
2021/10/25 14:10:44;;;;;;;52.40;10.58;;;;;;;12.17;50.21;99630.11;2144332;83;21000;-80
2021/10/25 14:16:52;;;;;;;13.38;7.65;;;;;;;12.07;50.56;99632.95;2117212;83;20952;-81
2021/10/25 14:19:52;;;;;;;13.72;8.35;;;;;;;12.01;51.17;99632.41;2144301;83;20940;-80
2021/10/25 14:22:55;;;;;;;14.93;9.03;;;;;;;11.92;51.22;99625.70;2143992;83;20937;-81
2021/10/25 14:25:55;;;;;;;14.70;8.30;;;;;;;11.83;51.42;99617.68;2143733;83;21015;-80
2021/10/25 14:28:56;;;;;;;16.85;8.50;;;;;;;11.72;51.82;99622.67;2143701;83;21402;-79
2021/10/25 14:31:56;;;;;;;14.53;7.90;;;;;;;11.60;51.95;99626.35;2144971;83;20996;-79
2021/10/25 14:34:58;;;;;;;14.47;8.88;;;;;;;11.47;52.53;99614.77;2144834;83;21000;-80
2021/10/25 14:37:59;;;;;;;27.82;8.53;;;;;;;11.36;52.48;99611.05;2144706;83;21376;-81
2021/10/25 14:41:13;;;;;;;15.93;8.93;;;;;;;11.30;52.74;99612.66;2144651;83;20975;-80
2021/10/25 14:44:07;;;;;;;14.10;8.63;;;;;;;11.16;52.85;99609.70;2142017;83;20991;-79
2021/10/25 14:47:24;;;;;;;17.77;10.10;;;;;;;10.97;52.71;99602.31;2144267;83;21047;-80
2021/10/25 14:56:31;;;;;;;26.40;9.37;;;;;;;10.55;53.51;99611.35;2117985;83;21062;-80
2021/10/25 14:59:31;;;;;;;21.10;9.73;;;;;;;10.39;53.96;99603.54;2144517;83;20995;-80
2021/10/25 15:02:32;;;;;;;19.03;9.03;;;;;;;10.25;54.08;99602.31;2144630;83;21023;-81
2021/10/25 15:05:35;;;;;;;39.73;9.73;;;;;;;10.06;54.82;99595.30;2144290;83;20996;-79
2021/10/25 15:08:35;;;;;;;17.73;8.87;;;;;;;9.86;55.33;99596.08;2143861;83;21022;-80
2021/10/25 15:11:36;;;;;;;18.80;9.33;;;;;;;9.68;55.69;99589.48;2144356;83;21325;-81
2021/10/25 15:14:41;;;;;;;20.50;9.03;;;;;;;9.46;56.00;99582.77;2144539;83;20956;-80
2021/10/25 15:17:40;;;;;;;16.90;8.80;;;;;;;9.32;56.45;99583.69;2144162;83;21067;-79
2021/10/25 15:20:41;;;;;;;16.73;8.93;;;;;;;9.15;56.74;99584.92;2144231;83;21007;-80
2021/10/25 15:23:42;;;;;;;17.33;8.40;;;;;;;8.97;56.96;99588.29;2144027;83;21039;-80
2021/10/25 15:26:48;;;;;;;19.83;8.40;;;;;;;8.82;57.51;99586.98;2144076;83;21055;-80
2021/10/25 15:29:45;;;;;;;12.90;7.97;;;;;;;8.66;58.04;99582.53;2143763;83;21030;-80
2021/10/25 15:32:45;;;;;;;14.70;8.37;;;;;;;8.48;58.57;99588.05;2144332;83;21412;-80
2021/10/25 15:35:48;;;;;;;14.37;8.23;;;;;;;8.30;59.06;99585.28;2144754;83;21032;-79
2021/10/25 15:38:50;;;;;;;12.57;8.13;;;;;;;8.10;59.90;99579.84;2144867;83;21011;-80